Airfield :
LOGIN :

Register | Disclaimer

   EN    FR    IT 

 










Legend :    VFR   Marginal VFR   IFR   Intensive IFR   Very Intensive IFR
Visi :
Ceiling :
>= 8 km
>= 3000ft
5 to 8 km
1000 to 3000 ft
1500m to 5 km
500 to 1000 ft
800 to 1500m
200 to 500 ft
< 800m
< 200 ft
Symbols :   Thunderstorms  Fog  Heavy snow  Heavy precipitations  Wind > 20 kt
SIGMETs :     Misc.  Thunderstorms  Icing  Turbulence  Mountain Waves  Volcanic Ashes






- Airport Elevation : 39 ft
- IATA code : ANR


EBAW - Anvers / Antwerpen Deurne

CURRENT METAR :
  • 150550Z 22005KT 9999 SCT030 15/13 Q1005 NOSIG

EXPIRED METARs :
  • 150520Z 21006KT 9999 -RA FEW012 15/13 Q1005 TEMPO 4000 RA
  • 150450Z 21005KT 9999 FEW011 15/13 Q1005 RERA TEMPO 4000 RA
  • 150420Z 21006KT 180V270 9999 -RA FEW011 16/13 Q1005 RESHRA NOSIG
  • 150350Z AUTO 22007KT CAVOK 16/13 Q1005
  • 150320Z AUTO 22008KT CAVOK 16/13 Q1005

TAF TAF EBAW
Valid from the 15 at 06:00 until the 15 at 15:00 UTC


150500Z 1506/1515 22005KT 9999 FEW020
PROB30
TEMPO 1506/1515 4000 RA SHRA



MET'MAP, your aeronautical weather chart ! - Copyright ORBIFLY December 2007 - Disclaimer

ORBIFLY MET'MAP TEAM :

Programming & Development : Alexandra Zaïnal
Concept & Development : Baudouin d'Aumeries
Co-Development & Prog : Marc-Olivier Méhu
Technical & hardware support : Manuel Goepfert

Contact : metmap@orbifly.com




SOURCES & CREDITS :

   NOAA